sensor_id;sensor_type;location;lat;lon;timestamp;pressure;altitude;pressure_sealevel;temperature;humidity
49194;BME280;35029;50.804;12.866;2023-01-26T00:02:03;98294.34;;;-0.18;100.00
49194;BME280;35029;50.804;12.866;2023-01-26T00:04:28;98294.56;;;-0.21;100.00
49194;BME280;35029;50.804;12.866;2023-01-26T00:06:54;98283.75;;;-0.27;100.00
49194;BME280;35029;50.804;12.866;2023-01-26T00:09:19;98275.84;;;-0.26;100.00
49194;BME280;35029;50.804;12.866;2023-01-26T00:11:45;98281.06;;;-0.26;100.00
49194;BME280;35029;50.804;12.866;2023-01-26T00:14:10;98252.25;;;-0.36;100.00
49194;BME280;35029;50.804;12.866;2023-01-26T00:16:36;98271.72;;;-0.17;100.00
49194;BME280;35029;50.804;12.866;2023-01-26T00:19:02;98266.41;;;-0.15;100.00
49194;BME280;35029;50.804;12.866;2023-01-26T00:21:28;98274.34;;;-0.17;100.00
49194;BME280;35029;50.804;12.866;2023-01-26T00:23:53;98274.44;;;-0.19;100.00
49194;BME280;35029;50.804;12.866;2023-01-26T00:26:22;98249.31;;;-0.31;100.00
49194;BME280;35029;50.804;12.866;2023-01-26T00:28:48;98265.09;;;-0.21;100.00
49194;BME280;35029;50.804;12.866;2023-01-26T00:31:16;98224.50;;;-0.48;100.00
49194;BME280;35029;50.804;12.866;2023-01-26T00:33:42;98260.94;;;-0.24;100.00
49194;BME280;35029;50.804;12.866;2023-01-26T00:36:09;98252.03;;;-0.32;100.00
49194;BME280;35029;50.804;12.866;2023-01-26T00:38:35;98235.28;;;-0.41;100.00
49194;BME280;35029;50.804;12.866;2023-01-26T00:41:00;98262.91;;;-0.27;100.00
49194;BME280;35029;50.804;12.866;2023-01-26T00:43:26;98256.88;;;-0.28;100.00
49194;BME280;35029;50.804;12.866;2023-01-26T00:45:51;98256.78;;;-0.26;100.00
49194;BME280;35029;50.804;12.866;2023-01-26T00:48:18;98261.16;;;-0.27;100.00
49194;BME280;35029;50.804;12.866;2023-01-26T00:50:44;98256.88;;;-0.28;100.00
49194;BME280;35029;50.804;12.866;2023-01-26T00:53:09;98256.88;;;-0.28;100.00
49194;BME280;35029;50.804;12.866;2023-01-26T00:55:36;98254.78;;;-0.23;100.00
49194;BME280;35029;50.804;12.866;2023-01-26T00:58:06;98235.34;;;-0.30;100.00
49194;BME280;35029;50.804;12.866;2023-01-26T01:00:33;98252.50;;;-0.27;100.00
49194;BME280;35029;50.804;12.866;2023-01-26T01:02:59;98251.13;;;-0.20;100.00
49194;BME280;35029;50.804;12.866;2023-01-26T01:05:27;98256.31;;;-0.20;100.00
49194;BME280;35029;50.804;12.866;2023-01-26T01:07:53;98261.75;;;-0.23;100.00
49194;BME280;35029;50.804;12.866;2023-01-26T01:10:19;98245.97;;;-0.33;100.00
49194;BME280;35029;50.804;12.866;2023-01-26T01:12:45;98239.34;;;-0.37;100.00
49194;BME280;35029;50.804;12.866;2023-01-26T01:15:11;98261.16;;;-0.27;100.00
49194;BME280;35029;50.804;12.866;2023-01-26T01:17:37;98261.97;;;-0.26;100.00
49194;BME280;35029;50.804;12.866;2023-01-26T01:20:05;98259.25;;;-0.25;100.00
49194;BME280;35029;50.804;12.866;2023-01-26T01:22:32;98250.63;;;-0.25;100.00
49194;BME280;35029;50.804;12.866;2023-01-26T01:24:57;98255.00;;;-0.26;100.00
49194;BME280;35029;50.804;12.866;2023-01-26T01:27:23;98257.38;;;-0.23;100.00
49194;BME280;35029;50.804;12.866;2023-01-26T01:29:50;98253.00;;;-0.22;100.00
49194;BME280;35029;50.804;12.866;2023-01-26T01:32:16;98254.78;;;-0.23;100.00
49194;BME280;35029;50.804;12.866;2023-01-26T01:34:42;98248.03;;;-0.25;100.00
49194;BME280;35029;50.804;12.866;2023-01-26T01:37:07;98234.97;;;-0.37;100.00
49194;BME280;35029;50.804;12.866;2023-01-26T01:39:33;98254.41;;;-0.29;100.00
49194;BME280;35029;50.804;12.866;2023-01-26T01:41:58;98248.47;;;-0.31;100.00
49194;BME280;35029;50.804;12.866;2023-01-26T01:44:25;98245.84;;;-0.31;100.00
49194;BME280;35029;50.804;12.866;2023-01-26T01:46:56;98237.22;;;-0.32;100.00
49194;BME280;35029;50.804;12.866;2023-01-26T01:50:01;98237.09;;;-0.30;100.00
49194;BME280;35029;50.804;12.866;2023-01-26T01:52:30;98231.06;;;-0.31;100.00
49194;BME280;35029;50.804;12.866;2023-01-26T01:55:04;98213.13;;;-0.47;100.00
49194;BME280;35029;50.804;12.866;2023-01-26T01:57:36;98229.75;;;-0.37;100.00
49194;BME280;35029;50.804;12.866;2023-01-26T02:00:15;98213.41;;;-0.39;100.00
49194;BME280;35029;50.804;12.866;2023-01-26T02:02:43;98208.53;;;-0.43;100.00
49194;BME280;35029;50.804;12.866;2023-01-26T02:05:32;98216.56;;;-0.46;100.00
49194;BME280;35029;50.804;12.866;2023-01-26T02:08:01;98203.19;;;-0.53;100.00
49194;BME280;35029;50.804;12.866;2023-01-26T02:10:28;98208.88;;;-0.48;100.00
49194;BME280;35029;50.804;12.866;2023-01-26T02:12:55;98203.91;;;-0.51;100.00
49194;BME280;35029;50.804;12.866;2023-01-26T02:15:22;98209.66;;;-0.59;100.00
49194;BME280;35029;50.804;12.866;2023-01-26T02:17:51;98206.13;;;-0.58;100.00
49194;BME280;35029;50.804;12.866;2023-01-26T02:27:57;98190.22;;;-0.66;100.00
49194;BME280;35029;50.804;12.866;2023-01-26T02:30:22;98183.03;;;-0.62;100.00
49194;BME280;35029;50.804;12.866;2023-01-26T02:32:49;98175.59;;;-0.56;100.00
49194;BME280;35029;50.804;12.866;2023-01-26T02:35:15;98170.50;;;-0.57;100.00
49194;BME280;35029;50.804;12.866;2023-01-26T02:37:40;98164.00;;;-0.52;100.00
49194;BME280;35029;50.804;12.866;2023-01-26T02:42:40;98157.81;;;-0.62;100.00
49194;BME280;35029;50.804;12.866;2023-01-26T02:45:15;98145.53;;;-0.60;100.00
49194;BME280;35029;50.804;12.866;2023-01-26T02:47:42;98138.88;;;-0.64;100.00
49194;BME280;35029;50.804;12.866;2023-01-26T02:50:09;98141.50;;;-0.64;100.00
49194;BME280;35029;50.804;12.866;2023-01-26T02:52:35;98133.31;;;-0.71;100.00
49194;BME280;35029;50.804;12.866;2023-01-26T02:55:09;98131.03;;;-0.75;100.00
49194;BME280;35029;50.804;12.866;2023-01-26T02:57:47;98148.81;;;-0.69;100.00
49194;BME280;35029;50.804;12.866;2023-01-26T03:00:16;98131.88;;;-0.75;100.00
49194;BME280;35029;50.804;12.866;2023-01-26T03:02:43;98139.34;;;-0.70;100.00
49194;BME280;35029;50.804;12.866;2023-01-26T03:05:09;98134.13;;;-0.70;100.00
49194;BME280;35029;50.804;12.866;2023-01-26T03:07:35;98131.03;;;-0.75;100.00
49194;BME280;35029;50.804;12.866;2023-01-26T03:10:00;98140.50;;;-0.74;100.00
49194;BME280;35029;50.804;12.866;2023-01-26T03:12:27;98133.88;;;-0.78;100.00
49194;BME280;35029;50.804;12.866;2023-01-26T03:14:53;98106.38;;;-0.94;100.00
49194;BME280;35029;50.804;12.866;2023-01-26T03:17:37;98135.19;;;-0.73;100.00
49194;BME280;35029;50.804;12.866;2023-01-26T03:20:04;98131.28;;;-0.78;100.00
49194;BME280;35029;50.804;12.866;2023-01-26T03:22:50;98109.09;;;-0.95;100.00
49194;BME280;35029;50.804;12.866;2023-01-26T03:25:46;98127.97;;;-0.80;100.00
49194;BME280;35029;50.804;12.866;2023-01-26T03:28:32;98123.94;;;-0.84;100.00
49194;BME280;35029;50.804;12.866;2023-01-26T03:30:58;98125.56;;;-0.83;100.00
49194;BME280;35029;50.804;12.866;2023-01-26T03:33:24;98126.88;;;-0.78;100.00
49194;BME280;35029;50.804;12.866;2023-01-26T03:35:52;98132.69;;;-0.74;100.00
49194;BME280;35029;50.804;12.866;2023-01-26T03:38:18;98126.66;;;-0.75;100.00
49194;BME280;35029;50.804;12.866;2023-01-26T03:40:47;98127.47;;;-0.86;100.00
49194;BME280;35029;50.804;12.866;2023-01-26T03:43:31;98119.78;;;-0.87;100.00
49194;BME280;35029;50.804;12.866;2023-01-26T03:46:16;98119.03;;;-0.89;100.00
49194;BME280;35029;50.804;12.866;2023-01-26T03:49:01;98114.44;;;-0.86;100.00
49194;BME280;35029;50.804;12.866;2023-01-26T03:51:49;98117.06;;;-0.86;100.00
49194;BME280;35029;50.804;12.866;2023-01-26T03:54:33;98114.44;;;-0.86;100.00
49194;BME280;35029;50.804;12.866;2023-01-26T03:57:17;98120.47;;;-0.85;100.00
49194;BME280;35029;50.804;12.866;2023-01-26T03:59:42;98116.31;;;-0.88;100.00
49194;BME280;35029;50.804;12.866;2023-01-26T04:02:13;98118.00;;;-0.87;100.00
49194;BME280;35029;50.804;12.866;2023-01-26T04:04:59;98117.88;;;-0.85;100.00
49194;BME280;35029;50.804;12.866;2023-01-26T04:07:51;98117.31;;;-0.77;100.00
49194;BME280;35029;50.804;12.866;2023-01-26T04:10:35;98110.44;;;-0.78;100.00
49194;BME280;35029;50.804;12.866;2023-01-26T04:13:02;98110.56;;;-0.80;100.00
49194;BME280;35029;50.804;12.866;2023-01-26T04:15:51;98110.69;;;-0.81;100.00
49194;BME280;35029;50.804;12.866;2023-01-26T04:18:35;98100.81;;;-0.89;100.00
49194;BME280;35029;50.804;12.866;2023-01-26T04:21:19;98106.66;;;-0.86;100.00
49194;BME280;35029;50.804;12.866;2023-01-26T04:23:52;98115.53;;;-0.77;100.00
49194;BME280;35029;50.804;12.866;2023-01-26T04:26:23;98091.84;;;-0.85;100.00
49194;BME280;35029;50.804;12.866;2023-01-26T04:28:49;98102.75;;;-0.69;100.00
49194;BME280;35029;50.804;12.866;2023-01-26T04:31:15;98101.56;;;-0.76;100.00
49194;BME280;35029;50.804;12.866;2023-01-26T04:33:43;98101.69;;;-0.77;100.00
49194;BME280;35029;50.804;12.866;2023-01-26T04:36:09;98082.13;;;-0.94;100.00
49194;BME280;35029;50.804;12.866;2023-01-26T04:38:39;98101.44;;;-0.86;100.00
49194;BME280;35029;50.804;12.866;2023-01-26T04:41:04;98099.28;;;-0.92;100.00
49194;BME280;35029;50.804;12.866;2023-01-26T04:43:35;98055.31;;;-1.19;100.00
49194;BME280;35029;50.804;12.866;2023-01-26T04:46:06;98103.78;;;-0.94;100.00
49194;BME280;35029;50.804;12.866;2023-01-26T04:48:33;98099.03;;;-0.89;100.00
49194;BME280;35029;50.804;12.866;2023-01-26T04:51:01;98092.09;;;-0.88;100.00
49194;BME280;35029;50.804;12.866;2023-01-26T04:53:27;98076.53;;;-1.01;100.00
49194;BME280;35029;50.804;12.866;2023-01-26T04:55:53;98087.81;;;-0.89;100.00
49194;BME280;35029;50.804;12.866;2023-01-26T04:58:19;98097.53;;;-0.91;100.00
49194;BME280;35029;50.804;12.866;2023-01-26T05:00:50;98093.38;;;-0.94;100.00
49194;BME280;35029;50.804;12.866;2023-01-26T05:03:17;98093.97;;;-0.90;100.00
49194;BME280;35029;50.804;12.866;2023-01-26T05:05:42;98093.84;;;-0.89;100.00
49194;BME280;35029;50.804;12.866;2023-01-26T05:08:08;98096.56;;;-0.90;100.00
49194;BME280;35029;50.804;12.866;2023-01-26T05:10:34;98091.94;;;-0.98;100.00
49194;BME280;35029;50.804;12.866;2023-01-26T05:13:22;98090.28;;;-0.99;100.00
49194;BME280;35029;50.804;12.866;2023-01-26T05:16:14;98064.56;;;-1.15;100.00
49194;BME280;35029;50.804;12.866;2023-01-26T05:18:52;98078.31;;;-1.02;100.00
49194;BME280;35029;50.804;12.866;2023-01-26T05:21:38;98103.28;;;-0.99;100.00
49194;BME280;35029;50.804;12.866;2023-01-26T05:24:04;98098.63;;;-1.07;100.00
49194;BME280;35029;50.804;12.866;2023-01-26T05:26:40;98100.69;;;-0.99;100.00
49194;BME280;35029;50.804;12.866;2023-01-26T05:29:11;98087.28;;;-1.06;100.00
49194;BME280;35029;50.804;12.866;2023-01-26T05:31:36;98100.34;;;-0.94;100.00
49194;BME280;35029;50.804;12.866;2023-01-26T05:34:03;98086.13;;;-1.02;100.00
49194;BME280;35029;50.804;12.866;2023-01-26T05:36:29;98110.03;;;-0.96;100.00
49194;BME280;35029;50.804;12.866;2023-01-26T05:38:56;98106.81;;;-1.00;100.00
49194;BME280;35029;50.804;12.866;2023-01-26T05:41:24;98102.25;;;-0.96;100.00
49194;BME280;35029;50.804;12.866;2023-01-26T05:44:10;98107.31;;;-0.95;100.00
49194;BME280;35029;50.804;12.866;2023-01-26T05:46:40;98109.69;;;-0.92;100.00
49194;BME280;35029;50.804;12.866;2023-01-26T05:49:06;98106.97;;;-0.90;100.00
49194;BME280;35029;50.804;12.866;2023-01-26T05:51:32;98110.97;;;-0.97;100.00
49194;BME280;35029;50.804;12.866;2023-01-26T05:53:57;98102.47;;;-0.99;100.00
49194;BME280;35029;50.804;12.866;2023-01-26T05:56:23;98103.63;;;-1.04;100.00
49194;BME280;35029;50.804;12.866;2023-01-26T05:58:53;98102.28;;;-1.09;100.00
49194;BME280;35029;50.804;12.866;2023-01-26T06:01:19;98059.75;;;-1.32;100.00
49194;BME280;35029;50.804;12.866;2023-01-26T06:03:51;98108.94;;;-1.05;100.00
49194;BME280;35029;50.804;12.866;2023-01-26T06:06:16;98112.50;;;-1.06;100.00
49194;BME280;35029;50.804;12.866;2023-01-26T06:08:49;98093.06;;;-1.13;100.00
49194;BME280;35029;50.804;12.866;2023-01-26T06:11:32;98106.44;;;-1.07;100.00
49194;BME280;35029;50.804;12.866;2023-01-26T06:14:21;98123.09;;;-1.09;100.00
49194;BME280;35029;50.804;12.866;2023-01-26T06:16:47;98117.69;;;-1.06;100.00
49194;BME280;35029;50.804;12.866;2023-01-26T06:19:12;98111.53;;;-1.05;100.00
49194;BME280;35029;50.804;12.866;2023-01-26T06:21:39;98101.72;;;-1.13;100.00
49194;BME280;35029;50.804;12.866;2023-01-26T06:24:05;98104.69;;;-1.06;100.00
49194;BME280;35029;50.804;12.866;2023-01-26T06:26:31;98105.94;;;-1.12;100.00
49194;BME280;35029;50.804;12.866;2023-01-26T06:28:57;98099.00;;;-1.11;100.00
49194;BME280;35029;50.804;12.866;2023-01-26T06:31:26;98094.84;;;-1.14;100.00
49194;BME280;35029;50.804;12.866;2023-01-26T06:33:56;98115.31;;;-1.09;100.00
49194;BME280;35029;50.804;12.866;2023-01-26T06:36:21;98108.47;;;-1.10;100.00
49194;BME280;35029;50.804;12.866;2023-01-26T06:38:49;98111.88;;;-1.10;100.00
49194;BME280;35029;50.804;12.866;2023-01-26T06:41:16;98112.63;;;-1.08;100.00
49194;BME280;35029;50.804;12.866;2023-01-26T06:43:46;98107.50;;;-1.09;100.00
49194;BME280;35029;50.804;12.866;2023-01-26T06:46:15;98105.00;;;-1.11;100.00
49194;BME280;35029;50.804;12.866;2023-01-26T06:48:41;98106.69;;;-1.10;100.00
49194;BME280;35029;50.804;12.866;2023-01-26T06:53:46;98105.59;;;-1.18;100.00
49194;BME280;35029;50.804;12.866;2023-01-26T06:56:24;98118.03;;;-1.11;100.00
49194;BME280;35029;50.804;12.866;2023-01-26T06:59:14;98104.91;;;-1.09;100.00
49194;BME280;35029;50.804;12.866;2023-01-26T07:02:01;98109.91;;;-1.06;100.00
49194;BME280;35029;50.804;12.866;2023-01-26T07:04:26;98087.59;;;-1.22;100.00
49194;BME280;35029;50.804;12.866;2023-01-26T07:06:52;98110.59;;;-1.04;100.00
49194;BME280;35029;50.804;12.866;2023-01-26T07:09:17;98118.63;;;-1.07;100.00
49194;BME280;35029;50.804;12.866;2023-01-26T07:11:43;98129.97;;;-1.08;100.00
49194;BME280;35029;50.804;12.866;2023-01-26T07:14:08;98122.41;;;-1.11;100.00
49194;BME280;35029;50.804;12.866;2023-01-26T07:16:34;98118.53;;;-1.06;100.00
49194;BME280;35029;50.804;12.866;2023-01-26T07:19:00;98114.97;;;-1.05;100.00
49194;BME280;35029;50.804;12.866;2023-01-26T07:21:26;98118.91;;;-0.99;100.00
49194;BME280;35029;50.804;12.866;2023-01-26T07:23:51;98111.78;;;-0.97;100.00
49194;BME280;35029;50.804;12.866;2023-01-26T07:26:17;98113.09;;;-1.03;100.00
49194;BME280;35029;50.804;12.866;2023-01-26T07:28:43;98113.09;;;-1.03;100.00
49194;BME280;35029;50.804;12.866;2023-01-26T07:31:10;98111.19;;;-0.65;100.00
49194;BME280;35029;50.804;12.866;2023-01-26T07:33:36;98115.56;;;-0.65;100.00
49194;BME280;35029;50.804;12.866;2023-01-26T07:36:02;98109.94;;;-0.83;100.00
49194;BME280;35029;50.804;12.866;2023-01-26T07:38:28;98104.47;;;-0.92;100.00
49194;BME280;35029;50.804;12.866;2023-01-26T07:40:55;98110.38;;;-1.01;100.00
49194;BME280;35029;50.804;12.866;2023-01-26T07:43:20;98105.84;;;-1.10;100.00
49194;BME280;35029;50.804;12.866;2023-01-26T07:45:48;98108.00;;;-1.04;100.00
49194;BME280;35029;50.804;12.866;2023-01-26T07:48:18;98115.56;;;-1.01;100.00
49194;BME280;35029;50.804;12.866;2023-01-26T07:50:44;98101.13;;;-1.05;100.00
49194;BME280;35029;50.804;12.866;2023-01-26T07:53:11;98112.03;;;-1.00;100.00
49194;BME280;35029;50.804;12.866;2023-01-26T07:55:41;98106.00;;;-1.00;100.00
49194;BME280;35029;50.804;12.866;2023-01-26T07:58:08;98103.03;;;-1.07;100.00
49194;BME280;35029;50.804;12.866;2023-01-26T08:00:34;98073.16;;;-1.26;100.00
49194;BME280;35029;50.804;12.866;2023-01-26T08:03:00;98099.44;;;-1.17;100.00
49194;BME280;35029;50.804;12.866;2023-01-26T08:05:25;98090.38;;;-1.36;100.00
49194;BME280;35029;50.804;12.866;2023-01-26T08:07:51;98115.25;;;-1.21;100.00
49194;BME280;35029;50.804;12.866;2023-01-26T08:10:16;98117.53;;;-1.16;100.00
49194;BME280;35029;50.804;12.866;2023-01-26T08:12:42;98105.47;;;-1.17;100.00
49194;BME280;35029;50.804;12.866;2023-01-26T08:15:08;98110.88;;;-1.20;100.00
49194;BME280;35029;50.804;12.866;2023-01-26T08:17:34;98115.41;;;-1.11;100.00
49194;BME280;35029;50.804;12.866;2023-01-26T08:20:00;98119.34;;;-1.05;100.00
49194;BME280;35029;50.804;12.866;2023-01-26T08:22:26;98108.09;;;-1.06;100.00
49194;BME280;35029;50.804;12.866;2023-01-26T08:24:52;98108.00;;;-1.04;100.00
49194;BME280;35029;50.804;12.866;2023-01-26T08:27:18;98105.63;;;-1.07;100.00
49194;BME280;35029;50.804;12.866;2023-01-26T08:29:43;98104.47;;;-1.03;100.00
49194;BME280;35029;50.804;12.866;2023-01-26T08:32:09;98102.66;;;-1.03;100.00
49194;BME280;35029;50.804;12.866;2023-01-26T08:34:34;98105.13;;;-1.12;100.00
49194;BME280;35029;50.804;12.866;2023-01-26T08:37:00;98110.78;;;-1.18;100.00
49194;BME280;35029;50.804;12.866;2023-01-26T08:39:26;98105.47;;;-1.17;100.00
49194;BME280;35029;50.804;12.866;2023-01-26T08:41:52;98108.78;;;-1.15;100.00
49194;BME280;35029;50.804;12.866;2023-01-26T08:44:17;98110.09;;;-1.09;100.00
49194;BME280;35029;50.804;12.866;2023-01-26T08:46:43;98060.81;;;-1.35;100.00
49194;BME280;35029;50.804;12.866;2023-01-26T08:49:09;98098.63;;;-1.07;100.00
49194;BME280;35029;50.804;12.866;2023-01-26T08:51:34;98096.88;;;-1.06;100.00
49194;BME280;35029;50.804;12.866;2023-01-26T08:54:00;98094.75;;;-1.01;100.00
49194;BME280;35029;50.804;12.866;2023-01-26T08:56:26;98060.75;;;-1.22;100.00
49194;BME280;35029;50.804;12.866;2023-01-26T08:58:52;98089.41;;;-1.11;100.00
49194;BME280;35029;50.804;12.866;2023-01-26T09:01:17;98062.97;;;-1.29;100.00
49194;BME280;35029;50.804;12.866;2023-01-26T09:03:43;98061.53;;;-1.33;100.00
49194;BME280;35029;50.804;12.866;2023-01-26T09:06:10;98095.19;;;-1.18;100.00
49194;BME280;35029;50.804;12.866;2023-01-26T09:08:37;98102.78;;;-1.04;100.00
49194;BME280;35029;50.804;12.866;2023-01-26T09:11:07;98119.69;;;-1.10;100.00
49194;BME280;35029;50.804;12.866;2023-01-26T09:13:33;98110.84;;;-1.07;100.00
49194;BME280;35029;50.804;12.866;2023-01-26T09:16:03;98108.09;;;-1.06;100.00
49194;BME280;35029;50.804;12.866;2023-01-26T09:18:28;98114.25;;;-1.07;100.00
49194;BME280;35029;50.804;12.866;2023-01-26T09:20:54;98114.75;;;-1.02;100.00
49194;BME280;35029;50.804;12.866;2023-01-26T09:23:20;98111.59;;;-0.94;100.00
49194;BME280;35029;50.804;12.866;2023-01-26T09:25:51;98115.94;;;-0.94;100.00
49194;BME280;35029;50.804;12.866;2023-01-26T09:28:17;98094.03;;;-1.03;100.00
49194;BME280;35029;50.804;12.866;2023-01-26T09:30:43;98114.34;;;-0.84;100.00
49194;BME280;35029;50.804;12.866;2023-01-26T09:33:08;98114.06;;;-0.92;100.00
49194;BME280;35029;50.804;12.866;2023-01-26T09:35:34;98094.53;;;-0.98;100.00
49194;BME280;35029;50.804;12.866;2023-01-26T09:37:59;98115.25;;;-0.96;100.00
49194;BME280;35029;50.804;12.866;2023-01-26T09:46:23;98118.00;;;-0.87;100.00
49194;BME280;35029;50.804;12.866;2023-01-26T09:49:04;98094.66;;;-0.99;100.00
49194;BME280;35029;50.804;12.866;2023-01-26T09:51:34;98111.34;;;-0.91;100.00
49194;BME280;35029;50.804;12.866;2023-01-26T09:54:09;98124.38;;;-0.91;100.00
49194;BME280;35029;50.804;12.866;2023-01-26T09:56:38;98114.78;;;-0.90;100.00
49194;BME280;35029;50.804;12.866;2023-01-26T10:01:52;98122.66;;;-0.68;100.00
49194;BME280;35029;50.804;12.866;2023-01-26T10:06:52;98111.78;;;-0.61;100.00
49194;BME280;35029;50.804;12.866;2023-01-26T10:09:40;98104.06;;;-0.63;100.00
49194;BME280;35029;50.804;12.866;2023-01-26T10:12:16;98115.34;;;-0.62;100.00
49194;BME280;35029;50.804;12.866;2023-01-26T10:22:44;98102.94;;;-0.36;100.00
49194;BME280;35029;50.804;12.866;2023-01-26T10:25:17;98101.03;;;-0.57;100.00
49194;BME280;35029;50.804;12.866;2023-01-26T10:27:44;98105.38;;;-0.69;100.00
49194;BME280;35029;50.804;12.866;2023-01-26T10:30:16;98106.09;;;-0.66;100.00
49194;BME280;35029;50.804;12.866;2023-01-26T10:32:45;98097.44;;;-0.67;100.00
49194;BME280;35029;50.804;12.866;2023-01-26T10:35:17;98097.69;;;-0.70;100.00
49194;BME280;35029;50.804;12.866;2023-01-26T10:37:43;98096.88;;;-0.71;100.00
49194;BME280;35029;50.804;12.866;2023-01-26T10:40:09;98089.50;;;-0.77;100.00
49194;BME280;35029;50.804;12.866;2023-01-26T10:42:37;98093.19;;;-0.68;100.00
49194;BME280;35029;50.804;12.866;2023-01-26T10:45:30;98097.31;;;-0.77;100.00
49194;BME280;35029;50.804;12.866;2023-01-26T10:48:20;98087.81;;;-0.89;100.00
49194;BME280;35029;50.804;12.866;2023-01-26T10:50:46;98093.03;;;-0.78;100.00
49194;BME280;35029;50.804;12.866;2023-01-26T10:53:21;98093.75;;;-0.76;100.00
49194;BME280;35029;50.804;12.866;2023-01-26T10:56:04;98099.22;;;-0.79;100.00
49194;BME280;35029;50.804;12.866;2023-01-26T11:01:08;98089.00;;;-0.82;100.00
49194;BME280;35029;50.804;12.866;2023-01-26T11:03:38;98099.53;;;-0.83;100.00
49194;BME280;35029;50.804;12.866;2023-01-26T11:06:14;98086.53;;;-0.83;100.00
49194;BME280;35029;50.804;12.866;2023-01-26T11:08:41;98096.13;;;-0.84;100.00
49194;BME280;35029;50.804;12.866;2023-01-26T11:11:25;98095.28;;;-0.84;100.00
49194;BME280;35029;50.804;12.866;2023-01-26T11:14:11;98096.94;;;-0.83;100.00
49194;BME280;35029;50.804;12.866;2023-01-26T11:16:40;98092.47;;;-0.81;100.00
49194;BME280;35029;50.804;12.866;2023-01-26T11:19:13;98099.22;;;-0.79;100.00
49194;BME280;35029;50.804;12.866;2023-01-26T11:21:57;98094.22;;;-0.82;100.00
49194;BME280;35029;50.804;12.866;2023-01-26T11:58:26;98054.22;;;-0.81;100.00
49194;BME280;35029;50.804;12.866;2023-01-26T12:01:04;98048.53;;;-0.86;100.00
49194;BME280;35029;50.804;12.866;2023-01-26T12:03:50;98052.81;;;-0.74;100.00
49194;BME280;35029;50.804;12.866;2023-01-26T12:06:33;98041.22;;;-0.70;100.00
49194;BME280;35029;50.804;12.866;2023-01-26T12:09:08;98044.06;;;-0.73;100.00
49194;BME280;35029;50.804;12.866;2023-01-26T12:14:39;98041.50;;;-0.61;100.00
49194;BME280;35029;50.804;12.866;2023-01-26T12:30:45;97997.09;;;-0.71;100.00
49194;BME280;35029;50.804;12.866;2023-01-26T12:33:12;98003.13;;;-0.71;100.00
49194;BME280;35029;50.804;12.866;2023-01-26T12:36:21;98000.66;;;-0.72;100.00
49194;BME280;35029;50.804;12.866;2023-01-26T12:41:20;97991.53;;;-0.66;100.00
49194;BME280;35029;50.804;12.866;2023-01-26T12:46:40;97989.16;;;-0.70;100.00
49194;BME280;35029;50.804;12.866;2023-01-26T12:49:21;97987.63;;;-0.61;100.00
49194;BME280;35029;50.804;12.866;2023-01-26T12:51:58;97978.03;;;-0.60;100.00
49194;BME280;35029;50.804;12.866;2023-01-26T12:54:37;97983.84;;;-0.57;100.00
49194;BME280;35029;50.804;12.866;2023-01-26T12:57:12;97982.19;;;-0.69;100.00
49194;BME280;35029;50.804;12.866;2023-01-26T12:59:41;97977.06;;;-0.82;100.00
49194;BME280;35029;50.804;12.866;2023-01-26T13:04:49;97980.28;;;-0.78;100.00
49194;BME280;35029;50.804;12.866;2023-01-26T13:12:58;97974.47;;;-0.93;100.00
49194;BME280;35029;50.804;12.866;2023-01-26T13:15:27;97989.88;;;-0.79;100.00
49194;BME280;35029;50.804;12.866;2023-01-26T13:17:58;97987.16;;;-0.77;100.00
49194;BME280;35029;50.804;12.866;2023-01-26T13:20:27;97968.91;;;-0.89;100.00
49194;BME280;35029;50.804;12.866;2023-01-26T13:22:54;97983.72;;;-0.78;100.00
49194;BME280;35029;50.804;12.866;2023-01-26T13:25:32;97989.28;;;-0.71;100.00
49194;BME280;35029;50.804;12.866;2023-01-26T13:27:58;97991.19;;;-0.73;100.00
49194;BME280;35029;50.804;12.866;2023-01-26T13:32:54;97984.53;;;-0.89;100.00
49194;BME280;35029;50.804;12.866;2023-01-26T13:35:26;97986.06;;;-0.86;100.00
49194;BME280;35029;50.804;12.866;2023-01-26T13:37:55;97986.06;;;-0.86;100.00
49194;BME280;35029;50.804;12.866;2023-01-26T13:40:35;97989.72;;;-0.89;100.00
49194;BME280;35029;50.804;12.866;2023-01-26T13:43:22;97994.69;;;-0.97;100.00
49194;BME280;35029;50.804;12.866;2023-01-26T13:46:09;97994.59;;;-0.95;100.00
49194;BME280;35029;50.804;12.866;2023-01-26T13:51:07;97985.13;;;-1.08;100.00
49194;BME280;35029;50.804;12.866;2023-01-26T13:53:36;97981.94;;;-0.77;100.00
49194;BME280;35029;50.804;12.866;2023-01-26T13:58:44;97966.53;;;-1.03;100.00
49194;BME280;35029;50.804;12.866;2023-01-26T14:01:11;97990.91;;;-0.93;100.00
49194;BME280;35029;50.804;12.866;2023-01-26T14:03:37;97982.53;;;-0.96;100.00
49194;BME280;35029;50.804;12.866;2023-01-26T14:06:08;97980.41;;;-0.91;100.00
49194;BME280;35029;50.804;12.866;2023-01-26T14:08:35;97979.69;;;-0.93;100.00
49194;BME280;35029;50.804;12.866;2023-01-26T14:11:04;97980.97;;;-0.88;100.00
49194;BME280;35029;50.804;12.866;2023-01-26T14:13:37;97945.25;;;-1.08;100.00
49194;BME280;35029;50.804;12.866;2023-01-26T14:16:05;97976.63;;;-0.87;100.00
49194;BME280;35029;50.804;12.866;2023-01-26T14:18:31;97979.09;;;-0.86;100.00
49194;BME280;35029;50.804;12.866;2023-01-26T14:21:13;97979.31;;;-0.89;100.00
49194;BME280;35029;50.804;12.866;2023-01-26T14:23:38;97979.31;;;-0.89;100.00
49194;BME280;35029;50.804;12.866;2023-01-26T14:26:18;97983.00;;;-0.91;100.00
49194;BME280;35029;50.804;12.866;2023-01-26T14:28:44;97973.41;;;-1.02;100.00
49194;BME280;35029;50.804;12.866;2023-01-26T14:31:22;97981.59;;;-0.95;100.00
49194;BME280;35029;50.804;12.866;2023-01-26T14:33:49;97952.09;;;-1.18;100.00
49194;BME280;35029;50.804;12.866;2023-01-26T14:36:19;97978.00;;;-1.06;100.00
49194;BME280;35029;50.804;12.866;2023-01-26T14:38:48;97983.94;;;-1.04;100.00
49194;BME280;35029;50.804;12.866;2023-01-26T14:41:20;97977.44;;;-0.98;100.00
49194;BME280;35029;50.804;12.866;2023-01-26T14:43:48;97981.69;;;-0.97;100.00